sensor_id;sensor_type;location;lat;lon;timestamp;temperature;humidity
1830;DHT22;914;48.118;11.600;2023-04-01T00:01:27;9.90;97.80
1830;DHT22;914;48.118;11.600;2023-04-01T00:03:52;9.80;98.30
1830;DHT22;914;48.118;11.600;2023-04-01T00:06:19;9.80;98.30
1830;DHT22;914;48.118;11.600;2023-04-01T00:08:45;9.60;98.60
1830;DHT22;914;48.118;11.600;2023-04-01T00:11:12;9.60;98.80
1830;DHT22;914;48.118;11.600;2023-04-01T00:13:38;9.70;98.50
1830;DHT22;914;48.118;11.600;2023-04-01T00:16:04;9.70;98.40
1830;DHT22;914;48.118;11.600;2023-04-01T00:18:30;9.80;98.50
1830;DHT22;914;48.118;11.600;2023-04-01T00:20:56;9.60;98.40
1830;DHT22;914;48.118;11.600;2023-04-01T00:23:22;9.50;98.90
1830;DHT22;914;48.118;11.600;2023-04-01T00:25:48;9.50;99.00
1830;DHT22;914;48.118;11.600;2023-04-01T00:28:19;9.50;98.90
1830;DHT22;914;48.118;11.600;2023-04-01T00:30:45;9.60;98.80
1830;DHT22;914;48.118;11.600;2023-04-01T00:33:11;9.80;98.40
1830;DHT22;914;48.118;11.600;2023-04-01T00:35:37;9.70;98.70
1830;DHT22;914;48.118;11.600;2023-04-01T00:38:04;9.60;98.60
1830;DHT22;914;48.118;11.600;2023-04-01T00:40:33;9.50;98.90
1830;DHT22;914;48.118;11.600;2023-04-01T00:42:59;9.50;98.80
1830;DHT22;914;48.118;11.600;2023-04-01T00:45:37;9.60;99.00
1830;DHT22;914;48.118;11.600;2023-04-01T00:48:26;9.70;98.70
1830;DHT22;914;48.118;11.600;2023-04-01T00:51:10;10.00;97.10
1830;DHT22;914;48.118;11.600;2023-04-01T00:53:41;9.90;98.10
1830;DHT22;914;48.118;11.600;2023-04-01T00:56:14;9.60;98.40
1830;DHT22;914;48.118;11.600;2023-04-01T00:58:44;10.00;97.70
1830;DHT22;914;48.118;11.600;2023-04-01T01:01:11;9.70;98.20
1830;DHT22;914;48.118;11.600;2023-04-01T01:03:37;9.70;98.50
1830;DHT22;914;48.118;11.600;2023-04-01T01:06:44;9.60;98.40
1830;DHT22;914;48.118;11.600;2023-04-01T01:09:37;9.70;98.30
1830;DHT22;914;48.118;11.600;2023-04-01T01:12:11;9.50;98.60
1830;DHT22;914;48.118;11.600;2023-04-01T01:14:48;9.80;98.30
1830;DHT22;914;48.118;11.600;2023-04-01T01:17:32;9.80;98.00
1830;DHT22;914;48.118;11.600;2023-04-01T01:34:34;9.90;97.60
1830;DHT22;914;48.118;11.600;2023-04-01T01:37:05;9.90;97.80
1830;DHT22;914;48.118;11.600;2023-04-01T01:39:34;10.20;96.70
1830;DHT22;914;48.118;11.600;2023-04-01T01:42:04;10.00;96.90
1830;DHT22;914;48.118;11.600;2023-04-01T01:44:31;10.20;96.90
1830;DHT22;914;48.118;11.600;2023-04-01T01:46:57;10.20;96.70
1830;DHT22;914;48.118;11.600;2023-04-01T01:49:24;10.20;96.70
1830;DHT22;914;48.118;11.600;2023-04-01T01:51:50;10.20;96.30
1830;DHT22;914;48.118;11.600;2023-04-01T01:54:17;10.10;97.00
1830;DHT22;914;48.118;11.600;2023-04-01T01:56:46;10.00;97.20
1830;DHT22;914;48.118;11.600;2023-04-01T01:59:14;10.10;96.90
1830;DHT22;914;48.118;11.600;2023-04-01T02:01:46;10.00;96.60
1830;DHT22;914;48.118;11.600;2023-04-01T02:04:14;10.00;96.90
1830;DHT22;914;48.118;11.600;2023-04-01T02:06:46;9.90;97.70
1830;DHT22;914;48.118;11.600;2023-04-01T02:09:13;9.80;97.60
1830;DHT22;914;48.118;11.600;2023-04-01T02:16:58;9.80;97.50
1830;DHT22;914;48.118;11.600;2023-04-01T02:19:39;9.80;97.60
1830;DHT22;914;48.118;11.600;2023-04-01T02:22:09;9.80;97.50
1830;DHT22;914;48.118;11.600;2023-04-01T02:24:37;10.10;96.60
1830;DHT22;914;48.118;11.600;2023-04-01T02:27:05;10.20;96.30
1830;DHT22;914;48.118;11.600;2023-04-01T02:29:31;9.90;96.70
1830;DHT22;914;48.118;11.600;2023-04-01T02:31:57;10.10;96.10
1830;DHT22;914;48.118;11.600;2023-04-01T02:34:24;9.90;96.90
1830;DHT22;914;48.118;11.600;2023-04-01T02:36:51;10.00;96.50
1830;DHT22;914;48.118;11.600;2023-04-01T02:39:18;10.00;96.20
1830;DHT22;914;48.118;11.600;2023-04-01T02:41:45;10.00;96.30
1830;DHT22;914;48.118;11.600;2023-04-01T02:44:12;9.80;96.90
1830;DHT22;914;48.118;11.600;2023-04-01T02:46:38;10.10;96.10
1830;DHT22;914;48.118;11.600;2023-04-01T02:49:04;10.10;95.90
1830;DHT22;914;48.118;11.600;2023-04-01T02:51:30;9.90;96.90
1830;DHT22;914;48.118;11.600;2023-04-01T02:53:56;9.90;96.60
1830;DHT22;914;48.118;11.600;2023-04-01T02:56:22;10.00;96.00
1830;DHT22;914;48.118;11.600;2023-04-01T02:58:48;9.80;96.70
1830;DHT22;914;48.118;11.600;2023-04-01T03:01:14;10.00;96.20
1830;DHT22;914;48.118;11.600;2023-04-01T03:03:40;10.00;96.00
1830;DHT22;914;48.118;11.600;2023-04-01T03:06:07;10.00;96.10
1830;DHT22;914;48.118;11.600;2023-04-01T03:08:33;10.30;96.10
1830;DHT22;914;48.118;11.600;2023-04-01T03:10:59;10.20;95.70
1830;DHT22;914;48.118;11.600;2023-04-01T03:13:24;10.20;95.70
1830;DHT22;914;48.118;11.600;2023-04-01T03:15:50;10.30;95.20
1830;DHT22;914;48.118;11.600;2023-04-01T03:18:16;10.00;95.90
1830;DHT22;914;48.118;11.600;2023-04-01T03:20:41;9.90;97.10
1830;DHT22;914;48.118;11.600;2023-04-01T03:23:07;9.70;96.70
1830;DHT22;914;48.118;11.600;2023-04-01T03:25:33;9.60;96.90
1830;DHT22;914;48.118;11.600;2023-04-01T03:27:59;9.50;97.20
1830;DHT22;914;48.118;11.600;2023-04-01T03:30:25;9.90;97.10
1830;DHT22;914;48.118;11.600;2023-04-01T03:32:52;9.80;97.00
1830;DHT22;914;48.118;11.600;2023-04-01T03:35:18;10.10;95.70
1830;DHT22;914;48.118;11.600;2023-04-01T03:37:43;9.80;96.50
1830;DHT22;914;48.118;11.600;2023-04-01T03:40:10;9.70;96.70
1830;DHT22;914;48.118;11.600;2023-04-01T03:42:36;9.40;96.90
1830;DHT22;914;48.118;11.600;2023-04-01T03:45:02;9.40;97.30
1830;DHT22;914;48.118;11.600;2023-04-01T03:47:28;9.30;97.10
1830;DHT22;914;48.118;11.600;2023-04-01T03:49:54;9.20;97.80
1830;DHT22;914;48.118;11.600;2023-04-01T03:52:20;9.40;97.20
1830;DHT22;914;48.118;11.600;2023-04-01T03:54:45;9.40;97.20
1830;DHT22;914;48.118;11.600;2023-04-01T03:57:11;9.60;97.40
1830;DHT22;914;48.118;11.600;2023-04-01T03:59:37;9.50;97.00
1830;DHT22;914;48.118;11.600;2023-04-01T04:02:03;9.50;97.30
1830;DHT22;914;48.118;11.600;2023-04-01T04:04:28;9.30;97.40
1830;DHT22;914;48.118;11.600;2023-04-01T04:06:54;9.50;97.50
1830;DHT22;914;48.118;11.600;2023-04-01T04:09:20;9.20;97.80
1830;DHT22;914;48.118;11.600;2023-04-01T04:11:47;9.10;98.10
1830;DHT22;914;48.118;11.600;2023-04-01T04:14:13;9.20;98.50
1830;DHT22;914;48.118;11.600;2023-04-01T04:16:38;9.20;98.10
1830;DHT22;914;48.118;11.600;2023-04-01T04:19:05;9.20;98.20
1830;DHT22;914;48.118;11.600;2023-04-01T04:21:30;9.40;98.00
1830;DHT22;914;48.118;11.600;2023-04-01T04:23:56;9.40;97.50
1830;DHT22;914;48.118;11.600;2023-04-01T04:26:22;9.40;97.70
1830;DHT22;914;48.118;11.600;2023-04-01T04:28:47;9.70;97.90
1830;DHT22;914;48.118;11.600;2023-04-01T04:31:19;9.80;97.00
1830;DHT22;914;48.118;11.600;2023-04-01T04:33:46;9.50;97.90
1830;DHT22;914;48.118;11.600;2023-04-01T04:36:11;9.30;98.20
1830;DHT22;914;48.118;11.600;2023-04-01T04:38:37;9.20;98.20
1830;DHT22;914;48.118;11.600;2023-04-01T04:41:02;9.20;98.20
1830;DHT22;914;48.118;11.600;2023-04-01T04:43:28;9.70;97.70
1830;DHT22;914;48.118;11.600;2023-04-01T04:45:54;9.60;97.80
1830;DHT22;914;48.118;11.600;2023-04-01T04:48:19;9.40;97.80
1830;DHT22;914;48.118;11.600;2023-04-01T04:50:49;9.90;97.30
1830;DHT22;914;48.118;11.600;2023-04-01T04:53:16;9.90;97.00
1830;DHT22;914;48.118;11.600;2023-04-01T04:55:47;9.70;97.30
1830;DHT22;914;48.118;11.600;2023-04-01T04:58:13;9.70;97.40
1830;DHT22;914;48.118;11.600;2023-04-01T05:00:39;10.10;96.50
1830;DHT22;914;48.118;11.600;2023-04-01T05:03:05;9.90;97.30
1830;DHT22;914;48.118;11.600;2023-04-01T05:05:30;9.60;97.50
1830;DHT22;914;48.118;11.600;2023-04-01T05:07:56;9.70;97.50
1830;DHT22;914;48.118;11.600;2023-04-01T05:10:22;9.70;97.30
1830;DHT22;914;48.118;11.600;2023-04-01T05:12:48;9.70;97.60
1830;DHT22;914;48.118;11.600;2023-04-01T05:15:13;10.20;96.20
1830;DHT22;914;48.118;11.600;2023-04-01T05:17:40;10.10;96.20
1830;DHT22;914;48.118;11.600;2023-04-01T05:20:06;10.20;96.20
1830;DHT22;914;48.118;11.600;2023-04-01T05:22:32;10.00;96.00
1830;DHT22;914;48.118;11.600;2023-04-01T05:24:58;9.80;96.50
1830;DHT22;914;48.118;11.600;2023-04-01T05:27:24;9.70;96.80
1830;DHT22;914;48.118;11.600;2023-04-01T05:29:49;10.20;95.70
1830;DHT22;914;48.118;11.600;2023-04-01T05:32:15;10.10;95.70
1830;DHT22;914;48.118;11.600;2023-04-01T05:34:41;10.00;95.50
1830;DHT22;914;48.118;11.600;2023-04-01T05:37:07;9.80;96.40
1830;DHT22;914;48.118;11.600;2023-04-01T05:39:37;9.60;96.60
1830;DHT22;914;48.118;11.600;2023-04-01T05:42:05;9.60;96.50
1830;DHT22;914;48.118;11.600;2023-04-01T05:44:31;9.60;96.50
1830;DHT22;914;48.118;11.600;2023-04-01T05:46:57;9.50;96.50
1830;DHT22;914;48.118;11.600;2023-04-01T05:49:22;9.60;96.50
1830;DHT22;914;48.118;11.600;2023-04-01T05:51:48;9.80;96.10
1830;DHT22;914;48.118;11.600;2023-04-01T05:54:14;10.00;95.20
1830;DHT22;914;48.118;11.600;2023-04-01T05:56:39;9.90;96.00
1830;DHT22;914;48.118;11.600;2023-04-01T05:59:05;9.80;96.00
1830;DHT22;914;48.118;11.600;2023-04-01T06:01:31;10.00;95.00
1830;DHT22;914;48.118;11.600;2023-04-01T06:03:57;9.90;96.20
1830;DHT22;914;48.118;11.600;2023-04-01T06:06:32;9.90;95.50
1830;DHT22;914;48.118;11.600;2023-04-01T06:09:07;10.00;95.00
1830;DHT22;914;48.118;11.600;2023-04-01T06:12:05;10.00;95.00
1830;DHT22;914;48.118;11.600;2023-04-01T06:26:15;10.20;94.00
1830;DHT22;914;48.118;11.600;2023-04-01T06:45:56;10.60;93.00
1830;DHT22;914;48.118;11.600;2023-04-01T06:54:14;10.20;93.50
1830;DHT22;914;48.118;11.600;2023-04-01T06:56:44;10.40;92.80
1830;DHT22;914;48.118;11.600;2023-04-01T06:59:25;10.50;92.90
1830;DHT22;914;48.118;11.600;2023-04-01T07:02:10;11.00;92.30
1830;DHT22;914;48.118;11.600;2023-04-01T07:04:42;10.90;91.70
1830;DHT22;914;48.118;11.600;2023-04-01T07:07:35;10.90;92.30
1830;DHT22;914;48.118;11.600;2023-04-01T07:10:09;11.10;91.70
1830;DHT22;914;48.118;11.600;2023-04-01T07:12:52;10.90;92.00
1830;DHT22;914;48.118;11.600;2023-04-01T07:15:23;11.00;92.00
1830;DHT22;914;48.118;11.600;2023-04-01T07:18:02;10.70;91.80
1830;DHT22;914;48.118;11.600;2023-04-01T07:20:32;10.60;92.00
1830;DHT22;914;48.118;11.600;2023-04-01T07:23:08;10.60;92.00
1830;DHT22;914;48.118;11.600;2023-04-01T07:25:45;11.20;91.40
1830;DHT22;914;48.118;11.600;2023-04-01T07:28:15;10.80;91.60
1830;DHT22;914;48.118;11.600;2023-04-01T07:30:51;10.50;92.00
1830;DHT22;914;48.118;11.600;2023-04-01T07:33:23;10.70;92.20
1830;DHT22;914;48.118;11.600;2023-04-01T07:36:32;11.20;91.40
1830;DHT22;914;48.118;11.600;2023-04-01T07:45:29;11.10;91.20
1830;DHT22;914;48.118;11.600;2023-04-01T07:51:02;11.40;90.80
1830;DHT22;914;48.118;11.600;2023-04-01T07:59:05;11.60;91.20
1830;DHT22;914;48.118;11.600;2023-04-01T08:04:28;12.00;90.30
1830;DHT22;914;48.118;11.600;2023-04-01T08:07:18;12.50;90.30
1830;DHT22;914;48.118;11.600;2023-04-01T08:10:23;12.00;90.10
1830;DHT22;914;48.118;11.600;2023-04-01T08:15:28;11.70;90.00
1830;DHT22;914;48.118;11.600;2023-04-01T08:20:58;11.60;90.10
1830;DHT22;914;48.118;11.600;2023-04-01T08:23:32;11.40;90.20
1830;DHT22;914;48.118;11.600;2023-04-01T08:28:55;11.70;90.10
1830;DHT22;914;48.118;11.600;2023-04-01T08:32:12;11.80;90.10
1830;DHT22;914;48.118;11.600;2023-04-01T08:34:24;11.80;89.40
1830;DHT22;914;48.118;11.600;2023-04-01T08:37:05;11.70;90.00
1830;DHT22;914;48.118;11.600;2023-04-01T08:39:42;11.80;90.00
1830;DHT22;914;48.118;11.600;2023-04-01T08:48:19;12.40;88.20
1830;DHT22;914;48.118;11.600;2023-04-01T08:53:47;12.20;88.70
1830;DHT22;914;48.118;11.600;2023-04-01T08:56:18;12.10;89.60
1830;DHT22;914;48.118;11.600;2023-04-01T09:09:42;12.40;88.00
1830;DHT22;914;48.118;11.600;2023-04-01T09:27:20;13.20;86.60
1830;DHT22;914;48.118;11.600;2023-04-01T09:35:50;13.10;84.80
1830;DHT22;914;48.118;11.600;2023-04-01T09:38:30;13.20;84.20
1830;DHT22;914;48.118;11.600;2023-04-01T09:41:30;13.50;84.40
1830;DHT22;914;48.118;11.600;2023-04-01T09:44:23;13.30;83.30
1830;DHT22;914;48.118;11.600;2023-04-01T09:56:23;13.40;84.20
1830;DHT22;914;48.118;11.600;2023-04-01T10:01:34;13.60;81.10
1830;DHT22;914;48.118;11.600;2023-04-01T10:04:35;13.70;81.20
1830;DHT22;914;48.118;11.600;2023-04-01T10:21:50;14.10;80.00
1830;DHT22;914;48.118;11.600;2023-04-01T10:30:21;13.50;81.90
1830;DHT22;914;48.118;11.600;2023-04-01T10:33:15;13.60;82.10
1830;DHT22;914;48.118;11.600;2023-04-01T10:55:27;13.30;82.70
1830;DHT22;914;48.118;11.600;2023-04-01T11:01:22;13.10;83.90
1830;DHT22;914;48.118;11.600;2023-04-01T11:15:15;12.60;90.00
1830;DHT22;914;48.118;11.600;2023-04-01T11:21:14;12.70;90.50
1830;DHT22;914;48.118;11.600;2023-04-01T11:26:47;12.50;92.00
1830;DHT22;914;48.118;11.600;2023-04-01T11:33:20;12.80;91.00
1830;DHT22;914;48.118;11.600;2023-04-01T11:38:26;12.90;91.20
1830;DHT22;914;48.118;11.600;2023-04-01T11:41:02;13.10;90.70
1830;DHT22;914;48.118;11.600;2023-04-01T11:43:54;12.60;90.80
1830;DHT22;914;48.118;11.600;2023-04-01T11:57:51;12.00;92.00
1830;DHT22;914;48.118;11.600;2023-04-01T12:00:24;11.80;93.30
1830;DHT22;914;48.118;11.600;2023-04-01T12:14:45;10.70;98.00
1830;DHT22;914;48.118;11.600;2023-04-01T12:17:30;10.90;98.30
1830;DHT22;914;48.118;11.600;2023-04-01T12:41:03;10.80;98.50
1830;DHT22;914;48.118;11.600;2023-04-01T12:51:55;10.30;99.40
1830;DHT22;914;48.118;11.600;2023-04-01T12:54:58;10.20;99.10
1830;DHT22;914;48.118;11.600;2023-04-01T13:05:44;10.40;99.20
1830;DHT22;914;48.118;11.600;2023-04-01T13:09:33;10.60;98.90
1830;DHT22;914;48.118;11.600;2023-04-01T13:14:31;10.50;98.50
1830;DHT22;914;48.118;11.600;2023-04-01T13:20:42;10.60;98.60
1830;DHT22;914;48.118;11.600;2023-04-01T13:28:25;10.70;98.10
1830;DHT22;914;48.118;11.600;2023-04-01T13:31:14;10.50;98.20
1830;DHT22;914;48.118;11.600;2023-04-01T13:33:55;10.50;98.70
1830;DHT22;914;48.118;11.600;2023-04-01T13:39:48;10.50;98.10
1830;DHT22;914;48.118;11.600;2023-04-01T13:42:45;10.50;99.10
1830;DHT22;914;48.118;11.600;2023-04-01T13:45:15;10.50;98.80
1830;DHT22;914;48.118;11.600;2023-04-01T13:53:11;10.30;99.90
1830;DHT22;914;48.118;11.600;2023-04-01T14:01:09;10.20;99.90
1830;DHT22;914;48.118;11.600;2023-04-01T14:06:58;10.30;99.90
1830;DHT22;914;48.118;11.600;2023-04-01T14:12:12;10.40;99.90
1830;DHT22;914;48.118;11.600;2023-04-01T14:14:54;10.50;99.90
1830;DHT22;914;48.118;11.600;2023-04-01T14:17:34;10.70;99.90
1830;DHT22;914;48.118;11.600;2023-04-01T14:23:12;10.40;99.90
1830;DHT22;914;48.118;11.600;2023-04-01T14:28:42;10.90;99.80
1830;DHT22;914;48.118;11.600;2023-04-01T14:31:38;11.20;98.90
1830;DHT22;914;48.118;11.600;2023-04-01T14:40:20;10.90;99.50
1830;DHT22;914;48.118;11.600;2023-04-01T14:51:38;11.00;99.90
1830;DHT22;914;48.118;11.600;2023-04-01T14:54:20;11.10;99.90
1830;DHT22;914;48.118;11.600;2023-04-01T14:57:11;10.70;99.90
1830;DHT22;914;48.118;11.600;2023-04-01T15:00:00;10.60;99.90
1830;DHT22;914;48.118;11.600;2023-04-01T15:22:27;10.70;99.80
1830;DHT22;914;48.118;11.600;2023-04-01T15:33:17;10.70;98.90
1830;DHT22;914;48.118;11.600;2023-04-01T15:38:33;11.20;97.60
1830;DHT22;914;48.118;11.600;2023-04-01T15:41:07;11.00;97.50
1830;DHT22;914;48.118;11.600;2023-04-01T15:43:46;11.20;97.40
1830;DHT22;914;48.118;11.600;2023-04-01T15:46:43;11.40;96.80
1830;DHT22;914;48.118;11.600;2023-04-01T15:52:17;11.30;96.90
1830;DHT22;914;48.118;11.600;2023-04-01T15:55:35;11.50;96.30
1830;DHT22;914;48.118;11.600;2023-04-01T16:01:15;11.50;95.60
1830;DHT22;914;48.118;11.600;2023-04-01T16:06:50;11.40;94.60
1830;DHT22;914;48.118;11.600;2023-04-01T16:09:43;11.50;94.60
1830;DHT22;914;48.118;11.600;2023-04-01T16:12:47;11.50;94.20
1830;DHT22;914;48.118;11.600;2023-04-01T16:18:16;11.40;93.90
1830;DHT22;914;48.118;11.600;2023-04-01T16:23:37;11.50;94.20
1830;DHT22;914;48.118;11.600;2023-04-01T16:26:16;11.30;94.00
1830;DHT22;914;48.118;11.600;2023-04-01T16:28:57;11.40;94.20
1830;DHT22;914;48.118;11.600;2023-04-01T16:31:51;11.70;93.30
1830;DHT22;914;48.118;11.600;2023-04-01T16:34:30;11.60;93.20
1830;DHT22;914;48.118;11.600;2023-04-01T16:37:29;11.50;92.80
1830;DHT22;914;48.118;11.600;2023-04-01T16:47:38;11.30;93.50
1830;DHT22;914;48.118;11.600;2023-04-01T16:53:02;11.30;92.70
1830;DHT22;914;48.118;11.600;2023-04-01T16:58:09;11.60;92.10
1830;DHT22;914;48.118;11.600;2023-04-01T17:00:48;11.00;92.00
1830;DHT22;914;48.118;11.600;2023-04-01T17:03:26;11.50;92.20
1830;DHT22;914;48.118;11.600;2023-04-01T17:06:13;11.50;91.90
1830;DHT22;914;48.118;11.600;2023-04-01T17:23:04;11.20;92.30
1830;DHT22;914;48.118;11.600;2023-04-01T17:28:24;11.20;92.30
1830;DHT22;914;48.118;11.600;2023-04-01T17:31:07;11.10;92.30
1830;DHT22;914;48.118;11.600;2023-04-01T17:34:03;11.20;92.20
1830;DHT22;914;48.118;11.600;2023-04-01T17:42:05;11.40;91.50
1830;DHT22;914;48.118;11.600;2023-04-01T17:47:43;11.40;91.40
1830;DHT22;914;48.118;11.600;2023-04-01T17:50:42;11.50;91.00
1830;DHT22;914;48.118;11.600;2023-04-01T17:55:53;11.30;91.10
1830;DHT22;914;48.118;11.600;2023-04-01T17:58:28;11.40;91.60
1830;DHT22;914;48.118;11.600;2023-04-01T18:01:17;11.20;91.50
1830;DHT22;914;48.118;11.600;2023-04-01T18:03:52;11.30;91.20
1830;DHT22;914;48.118;11.600;2023-04-01T18:06:21;11.30;91.20
1830;DHT22;914;48.118;11.600;2023-04-01T18:11:40;11.30;91.20
1830;DHT22;914;48.118;11.600;2023-04-01T18:20:18;11.10;91.30
1830;DHT22;914;48.118;11.600;2023-04-01T18:23:03;11.40;90.80
1830;DHT22;914;48.118;11.600;2023-04-01T18:25:36;11.60;91.00
1830;DHT22;914;48.118;11.600;2023-04-01T18:30:51;11.10;92.40
1830;DHT22;914;48.118;11.600;2023-04-01T18:33:34;11.10;92.80
1830;DHT22;914;48.118;11.600;2023-04-01T18:39:07;11.00;93.20
1830;DHT22;914;48.118;11.600;2023-04-01T18:44:28;10.70;94.00
1830;DHT22;914;48.118;11.600;2023-04-01T18:47:11;10.70;93.70
1830;DHT22;914;48.118;11.600;2023-04-01T18:49:54;10.80;94.00
1830;DHT22;914;48.118;11.600;2023-04-01T18:52:43;10.70;94.30
1830;DHT22;914;48.118;11.600;2023-04-01T19:01:02;10.60;95.60
1830;DHT22;914;48.118;11.600;2023-04-01T19:04:22;10.80;95.30
1830;DHT22;914;48.118;11.600;2023-04-01T19:06:50;10.70;95.50
1830;DHT22;914;48.118;11.600;2023-04-01T19:09:21;10.60;95.70
1830;DHT22;914;48.118;11.600;2023-04-01T19:14:56;10.60;96.00
1830;DHT22;914;48.118;11.600;2023-04-01T19:17:46;10.60;95.90
1830;DHT22;914;48.118;11.600;2023-04-01T19:20:25;10.60;96.40
1830;DHT22;914;48.118;11.600;2023-04-01T19:25:51;10.70;95.80
1830;DHT22;914;48.118;11.600;2023-04-01T19:37:26;10.60;95.60
1830;DHT22;914;48.118;11.600;2023-04-01T19:46:02;10.70;95.20
1830;DHT22;914;48.118;11.600;2023-04-01T19:48:59;10.60;95.50
1830;DHT22;914;48.118;11.600;2023-04-01T19:51:45;10.50;95.30
1830;DHT22;914;48.118;11.600;2023-04-01T19:54:48;10.50;95.50
1830;DHT22;914;48.118;11.600;2023-04-01T20:03:12;10.30;95.70
1830;DHT22;914;48.118;11.600;2023-04-01T20:14:13;10.20;95.70
1830;DHT22;914;48.118;11.600;2023-04-01T20:19:10;10.40;95.40
1830;DHT22;914;48.118;11.600;2023-04-01T20:21:42;10.30;95.40
1830;DHT22;914;48.118;11.600;2023-04-01T20:26:41;10.60;94.90
1830;DHT22;914;48.118;11.600;2023-04-01T20:32:02;10.30;95.20
1830;DHT22;914;48.118;11.600;2023-04-01T20:34:40;10.20;95.50
1830;DHT22;914;48.118;11.600;2023-04-01T20:40:38;10.20;95.70
1830;DHT22;914;48.118;11.600;2023-04-01T20:48:59;10.20;95.50
1830;DHT22;914;48.118;11.600;2023-04-01T20:51:38;10.20;95.40
1830;DHT22;914;48.118;11.600;2023-04-01T21:11:10;10.10;95.70
1830;DHT22;914;48.118;11.600;2023-04-01T21:18:59;10.10;95.50
1830;DHT22;914;48.118;11.600;2023-04-01T21:30:13;10.40;95.00
1830;DHT22;914;48.118;11.600;2023-04-01T21:32:53;10.30;95.20
1830;DHT22;914;48.118;11.600;2023-04-01T21:35:50;10.30;95.30
1830;DHT22;914;48.118;11.600;2023-04-01T21:38:37;10.20;95.20
1830;DHT22;914;48.118;11.600;2023-04-01T22:16:58;10.50;94.60
1830;DHT22;914;48.118;11.600;2023-04-01T22:25:11;10.30;95.20
1830;DHT22;914;48.118;11.600;2023-04-01T22:30:52;10.50;94.50
1830;DHT22;914;48.118;11.600;2023-04-01T22:33:14;10.30;94.80
1830;DHT22;914;48.118;11.600;2023-04-01T22:35:52;10.40;94.80
1830;DHT22;914;48.118;11.600;2023-04-01T22:38:29;10.30;94.80
1830;DHT22;914;48.118;11.600;2023-04-01T22:41:07;10.30;95.10
1830;DHT22;914;48.118;11.600;2023-04-01T22:43:43;10.60;94.20
1830;DHT22;914;48.118;11.600;2023-04-01T22:46:56;10.40;94.60
1830;DHT22;914;48.118;11.600;2023-04-01T22:52:05;10.60;94.30
1830;DHT22;914;48.118;11.600;2023-04-01T22:54:43;10.40;94.40
1830;DHT22;914;48.118;11.600;2023-04-01T23:00:10;10.50;94.60
1830;DHT22;914;48.118;11.600;2023-04-01T23:03:02;10.60;94.10
1830;DHT22;914;48.118;11.600;2023-04-01T23:05:29;10.60;94.50
1830;DHT22;914;48.118;11.600;2023-04-01T23:10:29;10.80;93.70
1830;DHT22;914;48.118;11.600;2023-04-01T23:13:04;10.60;94.00
1830;DHT22;914;48.118;11.600;2023-04-01T23:15:33;10.80;93.60
1830;DHT22;914;48.118;11.600;2023-04-01T23:21:21;10.50;94.60
1830;DHT22;914;48.118;11.600;2023-04-01T23:26:39;10.40;94.60
1830;DHT22;914;48.118;11.600;2023-04-01T23:29:13;10.40;94.60
1830;DHT22;914;48.118;11.600;2023-04-01T23:31:45;10.90;94.30
1830;DHT22;914;48.118;11.600;2023-04-01T23:36:43;10.60;94.30
1830;DHT22;914;48.118;11.600;2023-04-01T23:41:45;10.20;94.90
1830;DHT22;914;48.118;11.600;2023-04-01T23:44:13;10.30;94.80
1830;DHT22;914;48.118;11.600;2023-04-01T23:46:41;10.30;94.40
1830;DHT22;914;48.118;11.600;2023-04-01T23:49:28;10.30;94.80
1830;DHT22;914;48.118;11.600;2023-04-01T23:52:14;10.40;95.30
1830;DHT22;914;48.118;11.600;2023-04-01T23:54:51;10.30;94.50
1830;DHT22;914;48.118;11.600;2023-04-01T23:57:33;10.20;94.90
